createdAt,value
2018-12-15T00:00:30.335Z,2.00
2018-12-15T00:03:02.826Z,1.90
2018-12-15T00:05:35.372Z,1.90
2018-12-15T00:08:07.959Z,1.90
2018-12-15T00:10:40.348Z,1.90
2018-12-15T00:13:13.061Z,1.90
2018-12-15T00:15:46.151Z,2.00
2018-12-15T00:18:18.697Z,2.00
2018-12-15T00:20:51.131Z,2.00
2018-12-15T00:23:23.882Z,1.90
2018-12-15T00:25:56.383Z,1.90
2018-12-15T00:28:28.902Z,2.00
2018-12-15T00:31:01.428Z,2.00
2018-12-15T00:33:33.887Z,2.00
2018-12-15T00:36:06.254Z,2.00
2018-12-15T00:38:38.935Z,2.00
2018-12-15T00:41:11.387Z,2.00
2018-12-15T00:43:43.879Z,1.90
2018-12-15T00:46:16.277Z,1.90
2018-12-15T00:48:48.728Z,1.90
2018-12-15T00:51:21.270Z,1.90
2018-12-15T00:53:53.861Z,1.90
2018-12-15T00:56:26.387Z,1.90
2018-12-15T00:58:58.889Z,1.90
2018-12-15T01:01:31.565Z,1.90
2018-12-15T01:04:04.224Z,1.90
2018-12-15T01:06:37.227Z,1.90
2018-12-15T01:09:09.627Z,1.90
2018-12-15T01:11:42.105Z,2.00
2018-12-15T01:14:14.577Z,2.00
2018-12-15T01:16:46.982Z,1.90
2018-12-15T01:19:19.474Z,1.90
2018-12-15T01:21:51.788Z,1.90
2018-12-15T01:24:24.278Z,1.90
2018-12-15T01:26:56.800Z,1.90
2018-12-15T01:29:29.518Z,1.90
2018-12-15T01:32:01.899Z,1.90
2018-12-15T01:34:34.579Z,1.90
2018-12-15T01:37:06.939Z,1.90
2018-12-15T01:39:39.383Z,1.90
2018-12-15T01:42:11.894Z,1.90
2018-12-15T01:44:44.344Z,1.90
2018-12-15T01:47:16.836Z,1.90
2018-12-15T01:49:49.508Z,1.90
2018-12-15T01:52:21.880Z,1.90
2018-12-15T01:54:54.469Z,1.80
2018-12-15T01:57:26.914Z,1.80
2018-12-15T01:59:59.437Z,1.80
2018-12-15T02:02:32.863Z,1.80
2018-12-15T02:05:05.347Z,1.80
2018-12-15T02:07:38.343Z,1.80
2018-12-15T02:10:11.370Z,1.70
2018-12-15T02:12:43.929Z,1.80
2018-12-15T02:15:16.277Z,1.80
2018-12-15T02:17:48.672Z,1.80
2018-12-15T02:20:21.109Z,1.80
2018-12-15T02:22:53.485Z,1.80
2018-12-15T02:25:25.967Z,1.80
2018-12-15T02:27:58.489Z,1.70
2018-12-15T02:30:31.338Z,1.70
2018-12-15T02:33:10.922Z,1.70
2018-12-15T02:35:43.433Z,1.70
2018-12-15T02:38:15.820Z,1.80
2018-12-15T02:40:48.169Z,1.70
2018-12-15T02:43:20.743Z,1.60
2018-12-15T02:45:53.353Z,1.60
2018-12-15T02:48:25.790Z,1.60
2018-12-15T02:50:58.454Z,1.70
2018-12-15T02:53:30.819Z,1.60
2018-12-15T02:56:03.319Z,1.60
2018-12-15T02:58:35.865Z,1.60
2018-12-15T03:01:08.373Z,1.60
2018-12-15T03:03:41.192Z,1.60
2018-12-15T03:06:13.569Z,1.60
2018-12-15T03:08:46.074Z,1.60
2018-12-15T03:11:18.488Z,1.70
2018-12-15T03:13:50.858Z,1.70
2018-12-15T03:16:23.212Z,1.70
2018-12-15T03:18:56.554Z,1.70
2018-12-15T03:21:28.857Z,1.70
2018-12-15T03:24:01.392Z,1.70
2018-12-15T03:26:33.911Z,1.70
2018-12-15T03:29:06.358Z,1.70
2018-12-15T03:31:38.819Z,1.70
2018-12-15T03:34:11.317Z,1.80
2018-12-15T03:36:44.248Z,1.80
2018-12-15T03:39:16.536Z,1.80
2018-12-15T03:41:49.019Z,1.80
2018-12-15T03:44:21.407Z,1.70
2018-12-15T03:46:53.757Z,1.70
2018-12-15T03:49:26.121Z,1.70
2018-12-15T03:51:58.632Z,1.70
2018-12-15T03:54:31.167Z,1.70
2018-12-15T03:57:03.779Z,1.70
2018-12-15T03:59:36.443Z,1.70
2018-12-15T04:02:08.862Z,1.70
2018-12-15T04:04:41.385Z,1.70
2018-12-15T04:07:13.829Z,1.70
2018-12-15T04:09:46.677Z,1.70
2018-12-15T04:12:19.293Z,1.70
2018-12-15T04:14:51.719Z,1.70
2018-12-15T04:17:24.133Z,1.70
2018-12-15T04:19:56.586Z,1.70
2018-12-15T04:22:29.065Z,1.70
2018-12-15T04:25:01.538Z,1.70
2018-12-15T04:27:33.900Z,1.70
2018-12-15T04:30:06.709Z,1.70
2018-12-15T04:32:45.154Z,1.70
2018-12-15T04:35:13.534Z,1.70
2018-12-15T04:37:46.043Z,1.70
2018-12-15T04:40:18.757Z,1.70
2018-12-15T04:42:51.247Z,1.70
2018-12-15T04:45:23.649Z,1.70
2018-12-15T04:47:56.142Z,1.70
2018-12-15T04:50:28.574Z,1.70
2018-12-15T04:53:01.310Z,1.70
2018-12-15T04:55:33.792Z,1.70
2018-12-15T04:58:06.278Z,1.70
2018-12-15T05:00:38.647Z,1.70
2018-12-15T05:03:11.092Z,1.70
2018-12-15T05:05:43.555Z,1.60
2018-12-15T05:08:15.952Z,1.60
2018-12-15T05:10:48.376Z,1.60
2018-12-15T05:13:20.787Z,1.60
2018-12-15T05:15:53.251Z,1.70
2018-12-15T05:18:25.773Z,1.60
2018-12-15T05:20:58.155Z,1.60
2018-12-15T05:23:30.732Z,1.70
2018-12-15T05:26:03.082Z,1.60
2018-12-15T05:28:35.535Z,1.60
2018-12-15T05:31:08.044Z,1.60
2018-12-15T05:33:40.460Z,1.60
2018-12-15T05:36:12.909Z,1.60
2018-12-15T05:38:45.524Z,1.60
2018-12-15T05:41:18.054Z,1.60
2018-12-15T05:43:50.954Z,1.60
2018-12-15T05:46:23.484Z,1.60
2018-12-15T05:48:55.999Z,1.60
2018-12-15T05:51:28.327Z,1.60
2018-12-15T05:54:00.784Z,1.60
2018-12-15T05:56:33.159Z,1.50
2018-12-15T05:59:05.513Z,1.60
2018-12-15T06:01:37.999Z,1.50
2018-12-15T06:04:10.363Z,1.50
2018-12-15T06:06:43.069Z,1.60
2018-12-15T06:09:15.464Z,1.50
2018-12-15T06:11:47.951Z,1.60
2018-12-15T06:14:20.536Z,1.50
2018-12-15T06:16:53.452Z,1.50
2018-12-15T06:19:25.835Z,1.50
2018-12-15T06:21:58.274Z,1.50
2018-12-15T06:24:30.546Z,1.50
2018-12-15T06:27:03.048Z,1.50
2018-12-15T06:29:35.394Z,1.50
2018-12-15T06:32:07.918Z,1.50
2018-12-15T06:34:40.305Z,1.50
2018-12-15T06:37:12.699Z,1.50
2018-12-15T06:39:45.077Z,1.40
2018-12-15T06:42:17.547Z,1.40
2018-12-15T06:44:49.923Z,1.40
2018-12-15T06:47:22.383Z,1.40
2018-12-15T06:49:55.143Z,1.40
2018-12-15T06:52:27.773Z,1.30
2018-12-15T06:55:00.403Z,1.30
2018-12-15T06:57:32.944Z,1.30
2018-12-15T07:00:06.369Z,1.40
2018-12-15T07:02:39.037Z,1.30
2018-12-15T07:05:12.213Z,1.40
2018-12-15T07:07:44.666Z,1.40
2018-12-15T07:10:17.227Z,1.30
2018-12-15T07:12:49.644Z,1.30
2018-12-15T07:15:22.084Z,1.30
2018-12-15T07:17:54.513Z,1.30
2018-12-15T07:20:27.147Z,1.30
2018-12-15T07:22:59.744Z,1.30
2018-12-15T07:25:32.696Z,1.30
2018-12-15T07:28:05.289Z,1.30
2018-12-15T07:30:37.702Z,1.40
2018-12-15T07:33:10.107Z,1.30
2018-12-15T07:35:42.414Z,1.30
2018-12-15T07:38:14.927Z,1.30
2018-12-15T07:40:47.541Z,1.40
2018-12-15T07:43:19.931Z,1.50
2018-12-15T07:45:52.383Z,1.50
2018-12-15T07:48:25.028Z,1.60
2018-12-15T07:50:57.580Z,1.70
2018-12-15T07:53:30.193Z,1.80
2018-12-15T07:56:02.958Z,1.80
2018-12-15T07:58:35.336Z,1.80
2018-12-15T08:01:07.747Z,1.80
2018-12-15T08:03:40.341Z,1.80
2018-12-15T08:06:12.904Z,1.80
2018-12-15T08:08:45.642Z,1.80
2018-12-15T08:11:24.269Z,1.80
2018-12-15T08:14:02.654Z,1.80
2018-12-15T08:16:35.197Z,1.80
2018-12-15T08:19:07.707Z,1.80
2018-12-15T08:21:40.158Z,1.70
2018-12-15T08:24:12.452Z,1.70
2018-12-15T08:26:44.924Z,1.70
2018-12-15T08:29:17.288Z,1.70
2018-12-15T08:31:49.742Z,1.70
2018-12-15T08:34:22.172Z,1.70
2018-12-15T08:36:54.607Z,1.70
2018-12-15T08:39:26.923Z,1.70
2018-12-15T08:41:59.537Z,1.70
2018-12-15T08:44:31.943Z,1.80
2018-12-15T08:47:04.582Z,1.80
2018-12-15T08:49:36.966Z,1.80
2018-12-15T08:52:09.517Z,1.90
2018-12-15T08:54:42.120Z,1.80
2018-12-15T08:57:16.556Z,1.80
2018-12-15T08:59:48.886Z,1.90
2018-12-15T09:02:21.769Z,1.90
2018-12-15T09:05:01.428Z,1.90
2018-12-15T09:07:33.943Z,1.90
2018-12-15T09:10:06.431Z,1.90
2018-12-15T09:12:38.905Z,1.90
2018-12-15T09:15:11.632Z,2.00
2018-12-15T09:17:44.069Z,2.00
2018-12-15T09:20:17.227Z,1.90
2018-12-15T09:22:49.597Z,2.00
2018-12-15T09:25:22.307Z,2.00
2018-12-15T09:27:54.803Z,2.00
2018-12-15T09:30:27.166Z,2.00
2018-12-15T09:32:59.625Z,2.00
2018-12-15T09:35:32.115Z,2.00
2018-12-15T09:38:04.599Z,2.00
2018-12-15T09:40:36.872Z,2.00
2018-12-15T09:43:09.328Z,2.00
2018-12-15T09:45:41.838Z,2.10
2018-12-15T09:48:14.437Z,2.10
2018-12-15T09:50:47.015Z,2.00
2018-12-15T09:53:19.416Z,2.00
2018-12-15T09:55:51.866Z,2.00
2018-12-15T09:58:24.389Z,2.10
2018-12-15T10:00:56.917Z,2.10
2018-12-15T10:03:29.550Z,2.00
2018-12-15T10:06:02.007Z,2.10
2018-12-15T10:08:34.371Z,2.10
2018-12-15T10:11:07.011Z,2.00
2018-12-15T10:13:39.440Z,2.00
2018-12-15T10:16:11.817Z,2.10
2018-12-15T10:18:44.295Z,2.00
2018-12-15T10:21:16.909Z,2.00
2018-12-15T10:23:49.347Z,2.10
2018-12-15T10:26:21.730Z,2.10
2018-12-15T10:28:54.245Z,2.10
2018-12-15T10:31:33.019Z,2.10
2018-12-15T10:34:05.525Z,2.10
2018-12-15T10:36:38.052Z,2.20
2018-12-15T10:39:10.926Z,2.20
2018-12-15T10:41:43.530Z,2.20
2018-12-15T10:44:16.010Z,2.20
2018-12-15T10:46:48.362Z,2.30
2018-12-15T10:49:20.807Z,2.20
2018-12-15T10:51:53.254Z,2.20
2018-12-15T10:54:25.686Z,2.20
2018-12-15T10:56:58.144Z,2.30
2018-12-15T10:59:30.781Z,2.30
2018-12-15T11:02:03.431Z,2.20
2018-12-15T11:04:35.929Z,2.20
2018-12-15T11:07:08.349Z,2.20
2018-12-15T11:09:40.932Z,2.20
2018-12-15T11:12:13.479Z,2.20
2018-12-15T11:14:45.864Z,2.30
2018-12-15T11:17:18.253Z,2.30
2018-12-15T11:19:50.913Z,2.30
2018-12-15T11:22:23.431Z,2.30
2018-12-15T11:24:55.826Z,2.30
2018-12-15T11:27:28.231Z,2.30
2018-12-15T11:30:00.622Z,2.20
2018-12-15T11:32:34.313Z,2.30
2018-12-15T11:35:07.044Z,2.30
2018-12-15T11:37:39.610Z,2.30
2018-12-15T11:40:12.020Z,2.30
2018-12-15T11:42:44.667Z,2.40
2018-12-15T11:45:17.196Z,2.30
2018-12-15T11:47:49.577Z,2.30
2018-12-15T11:50:21.978Z,2.40
2018-12-15T11:52:54.356Z,2.40
2018-12-15T11:55:26.758Z,2.40
2018-12-15T11:57:59.439Z,2.40
2018-12-15T12:00:31.882Z,2.40
2018-12-15T12:03:04.405Z,2.50
2018-12-15T12:05:36.742Z,2.50
2018-12-15T12:08:09.291Z,2.50
2018-12-15T12:10:41.797Z,2.50
2018-12-15T12:13:14.263Z,2.50
2018-12-15T12:15:46.858Z,2.50
2018-12-15T12:18:19.251Z,2.50
2018-12-15T12:20:51.803Z,2.40
2018-12-15T12:23:24.115Z,2.40
2018-12-15T12:25:56.450Z,2.30
2018-12-15T12:28:28.875Z,2.40
2018-12-15T12:31:01.327Z,2.30
2018-12-15T12:33:33.750Z,2.30
2018-12-15T12:36:06.238Z,2.30
2018-12-15T12:38:38.695Z,2.30
2018-12-15T12:41:11.214Z,2.30
2018-12-15T12:43:43.870Z,2.30
2018-12-15T12:46:16.406Z,2.30
2018-12-15T12:48:48.909Z,2.30
2018-12-15T12:51:21.405Z,2.20
2018-12-15T12:53:53.889Z,2.30
2018-12-15T12:56:26.310Z,2.30
2018-12-15T12:58:58.814Z,2.30
2018-12-15T13:01:31.365Z,2.20
2018-12-15T13:04:03.811Z,2.30
2018-12-15T13:06:36.629Z,2.20
2018-12-15T13:09:09.089Z,2.20
2018-12-15T13:11:41.497Z,2.00
2018-12-15T13:14:13.920Z,2.00
2018-12-15T13:16:46.759Z,2.10
2018-12-15T13:19:19.202Z,2.00
2018-12-15T13:21:51.504Z,2.00
2018-12-15T13:24:24.230Z,2.10
2018-12-15T13:26:59.253Z,2.00
2018-12-15T13:29:31.573Z,2.00
2018-12-15T13:32:04.200Z,1.90
2018-12-15T13:34:36.819Z,1.90
2018-12-15T13:37:09.200Z,1.90
2018-12-15T13:39:41.899Z,2.00
2018-12-15T13:42:14.230Z,1.90
2018-12-15T13:44:46.701Z,2.00
2018-12-15T13:47:19.099Z,1.90
2018-12-15T13:49:51.643Z,2.00
2018-12-15T13:52:24.366Z,2.00
2018-12-15T13:54:57.007Z,1.90
2018-12-15T13:57:29.330Z,2.00
2018-12-15T14:00:02.106Z,1.90
2018-12-15T14:02:34.566Z,1.90
2018-12-15T14:05:07.053Z,2.00
2018-12-15T14:07:39.694Z,1.90
2018-12-15T14:10:12.210Z,1.90
2018-12-15T14:12:45.129Z,1.90
2018-12-15T14:15:17.743Z,1.90
2018-12-15T14:17:50.217Z,1.90
2018-12-15T14:20:22.719Z,1.90
2018-12-15T14:22:55.249Z,1.90
2018-12-15T14:25:27.883Z,1.90
2018-12-15T14:28:00.528Z,1.90
2018-12-15T14:30:33.126Z,1.80
2018-12-15T14:33:05.694Z,1.80
2018-12-15T14:35:38.168Z,1.80
2018-12-15T14:38:10.536Z,1.80
2018-12-15T14:40:43.399Z,1.80
2018-12-15T14:43:15.755Z,1.80
2018-12-15T14:45:48.260Z,1.80
2018-12-15T14:48:20.615Z,1.70
2018-12-15T14:50:52.972Z,1.70
2018-12-15T14:53:25.472Z,1.60
2018-12-15T14:55:57.838Z,1.60
2018-12-15T14:58:30.250Z,1.50
2018-12-15T15:01:02.885Z,1.50
2018-12-15T15:03:35.439Z,1.40
2018-12-15T15:06:07.832Z,1.30
2018-12-15T15:08:40.353Z,1.30
2018-12-15T15:11:12.916Z,1.20
2018-12-15T15:13:45.374Z,1.20
2018-12-15T15:16:17.958Z,1.20
2018-12-15T15:18:51.487Z,1.10
2018-12-15T15:21:23.854Z,1.10
2018-12-15T15:23:56.247Z,1.10
2018-12-15T15:26:29.122Z,1.00
2018-12-15T15:29:02.001Z,1.00
2018-12-15T15:31:35.323Z,0.90
2018-12-15T15:34:07.839Z,0.90
2018-12-15T15:36:40.204Z,0.90
2018-12-15T15:39:12.781Z,0.80
2018-12-15T15:41:45.730Z,0.80
2018-12-15T15:44:18.346Z,0.70
2018-12-15T15:46:50.930Z,0.60
2018-12-15T15:49:23.493Z,0.50
2018-12-15T15:51:55.898Z,0.40
2018-12-15T15:54:28.502Z,0.40
2018-12-15T15:57:00.896Z,0.30
2018-12-15T15:59:33.385Z,0.30
2018-12-15T16:02:06.177Z,0.10
2018-12-15T16:04:38.790Z,0.10
2018-12-15T16:07:11.314Z,0.00
2018-12-15T16:09:45.047Z,0.00
2018-12-15T16:12:18.054Z,-0.10
2018-12-15T16:14:50.485Z,-0.10
2018-12-15T16:17:22.878Z,-0.10
2018-12-15T16:19:55.384Z,-0.20
2018-12-15T16:22:27.925Z,-0.20
2018-12-15T16:25:00.510Z,-0.20
2018-12-15T16:27:33.000Z,-0.20
2018-12-15T16:30:07.597Z,-0.20
2018-12-15T16:32:40.094Z,-0.20
2018-12-15T16:35:12.731Z,-0.20
2018-12-15T16:37:45.356Z,-0.30
2018-12-15T16:40:17.984Z,-0.30
2018-12-15T16:42:50.696Z,-0.30
2018-12-15T16:45:23.805Z,-0.40
2018-12-15T16:47:56.321Z,-0.40
2018-12-15T16:50:28.868Z,-0.40
2018-12-15T16:53:01.723Z,-0.40
2018-12-15T16:55:34.703Z,-0.30
2018-12-15T16:58:07.472Z,-0.40
2018-12-15T17:00:39.895Z,-0.40
2018-12-15T17:03:12.294Z,-0.40
2018-12-15T17:05:44.961Z,-0.40
2018-12-15T17:08:17.525Z,-0.40
2018-12-15T17:10:50.219Z,-0.40
2018-12-15T17:13:22.835Z,-0.40
2018-12-15T17:15:55.448Z,-0.50
2018-12-15T17:18:27.896Z,-0.40
2018-12-15T17:21:00.545Z,-0.50
2018-12-15T17:23:33.409Z,-0.50
2018-12-15T17:26:05.915Z,-0.50
2018-12-15T17:28:38.388Z,-0.50
2018-12-15T17:31:10.927Z,-0.50
2018-12-15T17:33:43.494Z,-0.50
2018-12-15T17:36:15.891Z,-0.50
2018-12-15T17:38:48.354Z,-0.60
2018-12-15T17:41:20.989Z,-0.60
2018-12-15T17:43:53.409Z,-0.60
2018-12-15T17:46:25.825Z,-0.60
2018-12-15T17:48:58.292Z,-0.60
2018-12-15T17:51:30.740Z,-0.60
2018-12-15T17:54:03.235Z,-0.60
2018-12-15T17:56:35.744Z,-0.60
2018-12-15T17:59:08.349Z,-0.60
2018-12-15T18:01:40.991Z,-0.60
2018-12-15T18:04:13.549Z,-0.60
2018-12-15T18:06:45.985Z,-0.50
2018-12-15T18:09:18.464Z,-0.60
2018-12-15T18:11:50.835Z,-0.50
2018-12-15T18:14:23.284Z,-0.60
2018-12-15T18:16:55.834Z,-0.60
2018-12-15T18:19:30.916Z,-0.60
2018-12-15T18:22:10.501Z,-0.50
2018-12-15T18:24:43.406Z,-0.60
2018-12-15T18:27:15.910Z,-0.50
2018-12-15T18:29:48.590Z,-0.60
2018-12-15T18:32:21.307Z,-0.60
2018-12-15T18:34:53.936Z,-0.60
2018-12-15T18:37:26.346Z,-0.60
2018-12-15T18:39:58.875Z,-0.70
2018-12-15T18:42:31.483Z,-0.70
2018-12-15T18:45:05.015Z,-0.70
2018-12-15T18:47:37.406Z,-0.70
2018-12-15T18:50:09.871Z,-0.70
2018-12-15T18:52:42.933Z,-0.70
2018-12-15T18:55:15.633Z,-0.70
2018-12-15T18:57:48.391Z,-0.70
2018-12-15T19:00:21.250Z,-0.70
2018-12-15T19:02:54.002Z,-0.70
2018-12-15T19:05:26.592Z,-0.70
2018-12-15T19:07:59.249Z,-0.70
2018-12-15T19:10:31.705Z,-0.70
2018-12-15T19:13:04.164Z,-0.70
2018-12-15T19:15:36.796Z,-0.70
2018-12-15T19:18:09.528Z,-0.70
2018-12-15T19:20:43.555Z,-0.80
2018-12-15T19:23:16.132Z,-0.70
2018-12-15T19:25:48.727Z,-0.80
2018-12-15T19:28:21.272Z,-0.80
2018-12-15T19:30:53.952Z,-0.80
2018-12-15T19:33:26.667Z,-0.80
2018-12-15T19:35:59.301Z,-0.90
2018-12-15T19:38:32.057Z,-0.90
2018-12-15T19:41:04.674Z,-0.90
2018-12-15T19:46:16.559Z,-0.90
2018-12-15T19:48:49.161Z,-0.90
2018-12-15T19:51:21.650Z,-0.90
2018-12-15T19:53:54.593Z,-0.90
2018-12-15T19:56:27.255Z,-0.90
2018-12-15T19:58:59.900Z,-0.90
2018-12-15T20:01:32.471Z,-0.90
2018-12-15T20:04:05.011Z,-0.90
2018-12-15T20:06:37.678Z,-0.90
2018-12-15T20:09:10.106Z,-1.00
2018-12-15T20:11:42.759Z,-0.90
2018-12-15T20:14:15.417Z,-0.90
2018-12-15T20:16:47.947Z,-0.90
2018-12-15T20:19:27.632Z,-0.90
2018-12-15T20:22:00.153Z,-1.00
2018-12-15T20:24:33.030Z,-1.00
2018-12-15T20:27:05.482Z,-0.90
2018-12-15T20:29:37.972Z,-1.00
2018-12-15T20:32:10.621Z,-0.90
2018-12-15T20:34:43.050Z,-0.90
2018-12-15T20:37:15.416Z,-0.90
2018-12-15T20:39:47.859Z,-0.90
2018-12-15T20:42:20.473Z,-1.00
2018-12-15T20:44:53.090Z,-1.00
2018-12-15T20:47:28.085Z,-1.00
2018-12-15T20:49:59.928Z,-1.00
2018-12-15T20:52:32.790Z,-1.00
2018-12-15T20:55:05.592Z,-1.00
2018-12-15T20:57:38.290Z,-1.00
2018-12-15T21:00:10.974Z,-1.00
2018-12-15T21:02:43.414Z,-0.90
2018-12-15T21:05:16.194Z,-1.00
2018-12-15T21:07:48.734Z,-1.00
2018-12-15T21:10:21.230Z,-1.00
2018-12-15T21:12:53.950Z,-1.00
2018-12-15T21:15:28.621Z,-1.00
2018-12-15T21:18:01.274Z,-1.00
2018-12-15T21:20:34.314Z,-1.00
2018-12-15T21:23:07.004Z,-1.00
2018-12-15T21:25:39.816Z,-1.00
2018-12-15T21:28:12.248Z,-1.10
2018-12-15T21:30:44.796Z,-1.00
2018-12-15T21:33:17.432Z,-1.10
2018-12-15T21:35:50.055Z,-1.10
2018-12-15T21:38:22.652Z,-1.10
2018-12-15T21:40:55.071Z,-1.00
2018-12-15T21:43:27.473Z,-1.00
2018-12-15T21:45:59.965Z,-1.00
2018-12-15T21:48:32.763Z,-1.00
2018-12-15T21:51:05.225Z,-1.00
2018-12-15T21:53:37.679Z,-1.00
2018-12-15T21:56:10.315Z,-0.90
2018-12-15T21:58:42.736Z,-0.90
2018-12-15T22:01:15.154Z,-1.00
2018-12-15T22:03:47.610Z,-1.00
2018-12-15T22:06:20.020Z,-1.00
2018-12-15T22:08:52.446Z,-1.00
2018-12-15T22:11:24.954Z,-1.00
2018-12-15T22:13:57.415Z,-1.00
2018-12-15T22:16:29.871Z,-1.00
2018-12-15T22:19:02.264Z,-1.00
2018-12-15T22:21:34.934Z,-1.00
2018-12-15T22:24:07.349Z,-1.00
2018-12-15T22:26:39.735Z,-1.00
2018-12-15T22:29:12.243Z,-1.00
2018-12-15T22:31:44.649Z,-1.00
2018-12-15T22:34:17.042Z,-1.00
2018-12-15T22:36:49.457Z,-1.00
2018-12-15T22:39:21.940Z,-1.00
2018-12-15T22:41:54.342Z,-1.00
2018-12-15T22:44:27.001Z,-1.00
2018-12-15T22:46:59.670Z,-1.00
2018-12-15T22:49:32.049Z,-1.00
2018-12-15T22:52:09.802Z,-1.00
2018-12-15T22:54:39.029Z,-1.00
2018-12-15T22:57:11.355Z,-1.00
2018-12-15T22:59:43.788Z,-1.00
2018-12-15T23:02:21.443Z,-1.00
2018-12-15T23:04:54.667Z,-1.00
2018-12-15T23:07:27.086Z,-1.00
2018-12-15T23:09:59.482Z,-1.00
2018-12-15T23:12:32.186Z,-1.10
2018-12-15T23:15:05.999Z,-1.10
2018-12-15T23:17:38.530Z,-1.10
2018-12-15T23:20:10.949Z,-1.10
2018-12-15T23:22:43.482Z,-1.10
2018-12-15T23:25:15.887Z,-1.10
2018-12-15T23:27:48.297Z,-1.10
2018-12-15T23:30:21.027Z,-1.10
2018-12-15T23:32:53.518Z,-1.10
2018-12-15T23:35:25.942Z,-1.10
2018-12-15T23:37:58.540Z,-1.10
2018-12-15T23:40:30.908Z,-1.10
2018-12-15T23:43:03.534Z,-1.10
2018-12-15T23:45:36.145Z,-1.00
2018-12-15T23:48:08.579Z,-1.00
2018-12-15T23:50:40.953Z,-1.00
2018-12-15T23:53:13.423Z,-1.10
2018-12-15T23:55:45.859Z,-1.00
2018-12-15T23:58:18.346Z,-1.10
